Nearby METAR Reports

 

KIAG - Niagara Falls, New York, USA
Distance from station: W 12mi, 20km
Updated: 01/29/2020 6:06am
Overcast
Overcast
 Wind from N
Wind: N 10 mph , 17 km/h
Temperature: 25°F , -4°C
Wind Chill: 15°F , -9°C
Dew Point: 19°F , -7°C
Humidity: 80%
Barometer: 1020.7 hPa
Clouds: Overcast
Visibility: 10 miles , 16 km
Cloud details: Mostly cloudy 1400 ft
Overcast 2300 ft
2020/01/29 11:06 KIAG 291106Z AUTO 01009KT 10SM BKN014 OVC023 M04/M07 A3014 RMK AO2 T10441072
KBUF - Buffalo/Cheektow, New York, USA
Distance from station: S 13mi, 21km
Updated: 01/29/2020 5:54am
Light snow, Overcast
Light snow, Overcast
 Wind from N
Wind: N 10 mph , 17 km/h
Temperature: 27°F , -3°C
Wind Chill: 18°F , -8°C
Dew Point: 21°F , -6°C
Humidity: 80%
Barometer: 1020 hPa
Summary: Light Snow
Clouds: Overcast
Visibility: 9 miles , 14 km
Cloud details: Overcast 1400 ft
2020/01/29 10:54 KBUF 291054Z 36009KT 9SM -SN OVC014 M03/M06 A3012 RMK AO2 SLP209 P0000 T10281061
 
KROC - Rochester, New York, USA
Distance from station: E 51mi, 82km
Updated: 01/29/2020 5:54am
Light snow, Overcast
Light snow, Overcast
 Wind from N
Wind: N 8 mph , 13 km/h
Temperature: 25°F , -4°C
Wind Chill: 16°F , -9°C
Dew Point: 19°F , -7°C
Humidity: 80%
Barometer: 1020.3 hPa
Summary: Light Snow
Clouds: Overcast
Visibility: 6 miles , 10 km
Cloud details: Few Clouds 1500 ft
Overcast 2200 ft
2020/01/29 10:54 KROC 291054Z 01007KT 6SM -SN FEW015 OVC022 M04/M07 A3013 RMK AO2 SLP214 P0000 T10441072
CYSN - St. Catharines A, Ontario, Canada
Distance from station: WNW 25mi, 40km
Updated: 01/28/2020 9:00pm
NOT Current
Overcast
Overcast
 Wind from WNW
Wind: WNW 13 mph , 20 km/h
Temperature: 32°F , 0°C
Wind Chill: 22°F , -6°C
Dew Point: 25°F , -4°C
Humidity: 75%
Barometer: 1017.3 hPa
Clouds: Overcast
Visibility: 15 miles , 24 km
Cloud details: Overcast 3200 ft
2020/01/29 02:00 CYSN 290200Z 30011KT 15SM OVC032 00/M04 A3004 RMK SC8 LAST STFD OBS/NEXT 291200Z SLP179
 
KOLE - Olean, New York, USA
Distance from station: SSE 63mi, 102km
Updated: 01/29/2020 6:15am
Overcast
Overcast
 Wind from NW
Wind: NW 3 mph , 6 km/h
Temperature: 23°F , -5°C
Dew Point: 21°F , -6°C
Humidity: 93%
Barometer: 1016.6 hPa
Clouds: Overcast
Visibility: 10 miles , 16 km
Cloud details: Overcast 1900 ft
2020/01/29 11:15 KOLE 291115Z AUTO 32003KT 10SM OVC019 M05/M06 A3002 RMK AO2
KJHW - Jamestown, New York, USA
Distance from station: SSW 74mi, 119km
Updated: 01/29/2020 5:56am
Overcast
Overcast
 Wind from N
Wind: N 3 mph , 6 km/h
Temperature: 25°F , -4°C
Dew Point: 19°F , -7°C
Humidity: 80%
Barometer: 1017.9 hPa
Clouds: Overcast
Visibility: 10 miles , 16 km
Cloud details: Overcast 1500 ft
2020/01/29 10:56 KJHW 291056Z AUTO 35003KT 10SM OVC015 M04/M07 A3006 RMK AO2 SLP208 T10441067 FZRANO
 
CWWZ - Port Weller (mar, Ontario, Canada
Distance from station: WNW 28mi, 45km
Updated: 01/29/2020 6:00am

 Wind from N
Wind: N 17 mph , 28 km/h, Gust: 24 mph , 39 km/h
Temperature: 28°F , -2°C
Wind Chill: 16°F , -9°C
Dew Point: 23°F , -5°C
Humidity: 80%
2020/01/29 11:00 CWWZ 291100Z AUTO 36015G21KT M02/M05 RMK AO1 PK WND 01021/1050 SLP217 T10231048 53017
CWPC - Port Colborne(Au, Ontario, Canada
Distance from station: WSW 33mi, 53km
Updated: 01/29/2020 6:00am

 Wind from NNE
Wind: NNE 10 mph , 17 km/h
Temperature: 28°F , -2°C
Wind Chill: 19°F , -7°C
Dew Point: 23°F , -5°C
Humidity: 80%
2020/01/29 11:00 CWPC 291100Z AUTO 03009KT M02/M05 RMK AO1 SLP212 T10231052 53014
 
CXVN - Vineland (au8), Ontario, Canada
Distance from station: W 36mi, 58km
Updated: 01/29/2020 6:00am

 Wind from NNE
Wind: NNE 14 mph , 22 km/h
Temperature: 28°F , -2°C
Wind Chill: 17°F , -8°C
Dew Point: 21°F , -6°C
Humidity: 74%
2020/01/29 11:00 CXVN 291100Z AUTO 02012KT M02/M06 RMK AO1 SLP218 T10231056 53016
CYTZ - Toronto Il Vor, Ontario, Canada
Distance from station: NW 50mi, 81km
Updated: 01/29/2020 6:00am
Overcast
Overcast
 Wind from N
Wind: N 10 mph , 17 km/h
Temperature: 23°F , -5°C
Wind Chill: 13°F , -11°C
Dew Point: 16°F , -9°C
Humidity: 74%
Barometer: 1021.7 hPa
Clouds: Overcast
Visibility: 9 miles , 14 km
Cloud details: Overcast 2000 ft
2020/01/29 11:00 CYTZ 291100Z AUTO 35009KT 320V030 9SM OVC020 M05/M09 A3017 RMK SLP223
 
CXTO - Toronto City, Ontario, Canada
Distance from station: NW 52mi, 84km
Updated: 01/29/2020 6:00am

 
Temperature: 23°F , -5°C
Dew Point: 14°F , -10°C
Humidity: 68%
2020/01/29 11:00 CXTO 291100Z AUTO M05/M10 RMK AO1 SOG 01 3014 SLP223 T10531095
KDKK - Dunkirk, New York, USA
Distance from station: SW 52mi, 84km
Updated: 01/29/2020 5:53am
Overcast
Overcast
 Wind from NW
Wind: NW 5 mph , 7 km/h
Temperature: 30°F , -1°C
Wind Chill: 25°F , -4°C
Dew Point: 21°F , -6°C
Humidity: 69%
Barometer: 1020 hPa
Clouds: Overcast
Visibility: 10 miles , 16 km
Cloud details: Mostly cloudy 2500 ft
Overcast 3000 ft
2020/01/29 10:53 KDKK 291053Z AUTO 32004KT 10SM BKN025 OVC030 M01/M06 A3012 RMK AO2 SLP208 T10061061
 
CYOO - Oshawa, Ontario, Canada
Distance from station: N 56mi, 90km
Updated: 01/29/2020 6:00am
Light snow, Overcast
Light snow, Overcast
 Wind from N
Wind: N 10 mph , 17 km/h
Temperature: 19°F , -7°C
Wind Chill: 8°F , -13°C
Dew Point: 16°F , -9°C
Humidity: 86%
Barometer: 1021.3 hPa
Summary: Light Snow
Clouds: Overcast
Visibility: 9 miles , 14 km
Cloud details: Overcast 1800 ft
2020/01/29 11:00 CYOO 291100Z AUTO 35009KT 9SM -SN OVC018 M07/M09 A3016 RMK SLP223
CWWB - Burlington Piers, Ontario, Canada
Distance from station: WNW 56mi, 91km
Updated: 01/29/2020 6:00am

 Wind from N
Wind: N 10 mph , 17 km/h
Temperature: 27°F , -3°C
Wind Chill: 18°F , -8°C
Dew Point: 19°F , -7°C
Humidity: 74%
2020/01/29 11:00 CWWB 291100Z AUTO 35009KT M03/M07 RMK AO1 SLP216 T10261066 53014
 
CYYZ - Toronto/Pearson, Ontario, Canada
Distance from station: NW 60mi, 96km
Updated: 01/29/2020 6:00am
Mostly cloudy
Mostly cloudy
 Wind from NNE
Wind: NNE 7 mph , 11 km/h
Temperature: 21°F , -6°C
Wind Chill: 12°F , -11°C
Dew Point: 16°F , -9°C
Humidity: 80%
Barometer: 1021 hPa
Clouds: Mostly cloudy
Visibility: 15 miles , 24 km
Cloud details: Mostly cloudy 1500 ft
2020/01/29 11:00 CYYZ 291100Z 03006KT 330V040 15SM BKN015 M06/M09 A3015 RMK SC7 SLP221
CYKZ - Toronto Buttonvi, Ontario, Canada
Distance from station: NW 62mi, 99km
Updated: 01/03/2019 4:00am
NOT Current
Partly cloudy
Partly cloudy
 Wind from WSW
Wind: WSW 5 mph , 7 km/h
Temperature: 27°F , -3°C
Wind Chill: 21°F , -6°C
Dew Point: 23°F , -5°C
Humidity: 86%
Barometer: 1010.8 hPa
Clouds: Partly cloudy
Visibility: 15 miles , 24 km
Cloud details: Partly cloudy 4000 ft
2019/01/03 09:00 CYKZ 030900Z 25004KT 15SM SCT040 M03/M05 A2985 RMK SC3 LAST STFD OBS FAREWELL SLP118
 
CXHM - Hamilton Rbg Cs, Ontario, Canada
Distance from station: W 62mi, 100km
Updated: 01/29/2020 6:00am

 Wind from NNE
Wind: NNE 2 mph , 4 km/h
2020/01/29 11:00 CXHM 291100Z AUTO 02002KT RMK AO1 53014
KDSV - Dansville, New York, USA
Distance from station: SE 62mi, 100km
Updated: 01/29/2020 5:54am
Overcast
Overcast
 Wind from NNW
Wind: NNW 10 mph , 17 km/h
Temperature: 28°F , -2°C
Wind Chill: 19°F , -7°C
Dew Point: 21°F , -6°C
Humidity: 74%
Barometer: 1019.3 hPa
Clouds: Overcast
Visibility: 10 miles , 16 km
Cloud details: Overcast 1800 ft
2020/01/29 10:54 KDSV 291054Z AUTO 34009KT 10SM OVC018 M02/M06 A3010 RMK AO2 SLP210 T10221056
 
CYHM - Hamilton Airport, Ontario, Canada
Distance from station: W 63mi, 101km
Updated: 01/29/2020 6:00am
Overcast
Overcast
 Wind from varies
Wind: varies 2 mph , 4 km/h
Temperature: 27°F , -3°C
Dew Point: 19°F , -7°C
Humidity: 74%
Barometer: 1020.3 hPa
Clouds: Overcast
Visibility: 15 miles , 24 km
Cloud details: Overcast 2100 ft
2020/01/29 11:00 CYHM 291100Z VRB02KT 15SM OVC021 M03/M07 A3013 RMK SC8 SLP215
CWNC - Cobourg (mars), Ontario, Canada
Distance from station: NNE 63mi, 102km
Updated: 01/29/2020 6:00am

 Wind from N
Wind: N 2 mph , 4 km/h
Temperature: 16°F , -9°C
Dew Point: 10°F , -12°C
Humidity: 79%
2020/01/29 11:00 CWNC 291100Z AUTO 01002KT M09/M12 RMK AO1 SOG 02 3014 SLP222 T10911120